createdAt,value
2023-04-20T00:06:10.353Z,6.60
2023-04-20T00:16:15.190Z,6.70
2023-04-20T00:26:19.428Z,6.70
2023-04-20T00:36:28.307Z,6.70
2023-04-20T00:46:31.730Z,6.70
2023-04-20T00:56:36.624Z,6.80
2023-04-20T01:06:42.837Z,6.80
2023-04-20T01:16:48.341Z,6.90
2023-04-20T01:26:53.080Z,6.80
2023-04-20T01:36:56.626Z,6.90
2023-04-20T01:47:01.643Z,6.90
2023-04-20T01:57:05.206Z,6.80
2023-04-20T02:07:10.073Z,6.90
2023-04-20T02:17:15.472Z,6.90
2023-04-20T02:27:20.321Z,6.80
2023-04-20T02:37:23.695Z,6.80
2023-04-20T02:47:28.469Z,6.80
2023-04-20T02:57:32.571Z,6.80
2023-04-20T03:07:38.387Z,6.80
2023-04-20T03:17:43.233Z,6.80
2023-04-20T03:27:49.021Z,6.60
2023-04-20T03:37:53.958Z,6.70
2023-04-20T03:47:59.680Z,6.70
2023-04-20T03:58:03.976Z,6.60
2023-04-20T04:08:18.371Z,6.60
2023-04-20T04:18:23.012Z,6.70
2023-04-20T04:28:29.487Z,6.80
2023-04-20T04:38:44.593Z,7.00
2023-04-20T04:48:49.464Z,7.10
2023-04-20T04:58:53.891Z,7.40
2023-04-20T05:08:58.644Z,7.50
2023-04-20T05:19:02.026Z,7.80
2023-04-20T05:29:06.792Z,8.00
2023-04-20T05:39:13.212Z,8.40
2023-04-20T05:49:18.102Z,8.70
2023-04-20T05:59:21.972Z,9.10
2023-04-20T06:09:26.833Z,9.50
2023-04-20T06:19:30.276Z,10.00
2023-04-20T06:29:35.042Z,10.30
2023-04-20T06:39:38.761Z,11.10
2023-04-20T06:49:43.559Z,11.70
2023-04-20T06:59:46.925Z,12.00
2023-04-20T07:09:51.908Z,13.20
2023-04-20T07:19:56.264Z,15.20
2023-04-20T07:30:01.974Z,15.20
2023-04-20T07:40:06.995Z,15.20
2023-04-20T07:50:12.396Z,15.20
2023-04-20T08:00:18.166Z,17.70
2023-04-20T08:10:23.814Z,16.90
2023-04-20T08:20:27.262Z,17.00
2023-04-20T08:30:32.033Z,15.90
2023-04-20T08:40:38.148Z,15.90
2023-04-20T08:50:44.320Z,15.70
2023-04-20T09:00:48.700Z,14.90
2023-04-20T09:10:53.424Z,15.60
2023-04-20T09:20:56.763Z,17.50
2023-04-20T09:31:01.571Z,17.30
2023-04-20T09:41:05.965Z,17.90
2023-04-20T09:51:11.784Z,18.30
2023-04-20T10:01:15.368Z,18.90
2023-04-20T10:11:41.132Z,17.00
2023-04-20T10:21:55.831Z,16.20
2023-04-20T10:32:00.580Z,17.50
2023-04-20T10:42:04.006Z,16.40
2023-04-20T10:52:08.814Z,15.20
2023-04-20T11:02:14.426Z,15.50
2023-04-20T11:12:19.274Z,19.10
2023-04-20T11:22:23.773Z,20.90
2023-04-20T11:32:28.935Z,21.20
2023-04-20T11:42:32.550Z,26.70
2023-04-20T11:52:37.288Z,28.90
2023-04-20T12:02:41.206Z,27.00
2023-04-20T12:12:46.168Z,37.80
2023-04-20T12:22:50.803Z,43.90
2023-04-20T12:32:55.911Z,40.10
2023-04-20T12:42:59.411Z,34.80
2023-04-20T12:53:04.217Z,29.10
2023-04-20T13:03:07.790Z,33.10
2023-04-20T13:13:13.002Z,30.50
2023-04-20T13:23:16.472Z,27.20
2023-04-20T13:33:21.244Z,24.00
2023-04-20T13:43:24.637Z,22.10
2023-04-20T13:53:29.428Z,20.70
2023-04-20T14:03:32.886Z,19.50
2023-04-20T14:13:38.355Z,19.50
2023-04-20T14:23:41.830Z,19.50
2023-04-20T14:33:47.850Z,19.00
2023-04-20T14:43:51.927Z,18.90
2023-04-20T14:53:56.831Z,18.30
2023-04-20T15:04:00.511Z,17.70
2023-04-20T15:14:05.681Z,17.20
2023-04-20T15:24:10.066Z,17.20
2023-04-20T15:34:17.493Z,16.80
2023-04-20T15:44:21.921Z,16.60
2023-04-20T15:54:26.734Z,16.30
2023-04-20T16:04:30.125Z,16.00
2023-04-20T16:14:35.229Z,15.60
2023-04-20T16:24:39.383Z,14.90
2023-04-20T16:34:44.388Z,14.50
2023-04-20T16:44:47.842Z,14.10
2023-04-20T16:54:52.700Z,13.90
2023-04-20T17:04:56.873Z,13.70
2023-04-20T17:15:02.071Z,13.30
2023-04-20T17:25:07.797Z,13.00
2023-04-20T17:35:12.926Z,12.50
2023-04-20T17:45:17.419Z,12.10
2023-04-20T17:55:22.506Z,11.40
2023-04-20T18:05:26.895Z,10.60
2023-04-20T18:15:32.202Z,10.00
2023-04-20T18:25:35.858Z,9.80
2023-04-20T18:35:41.238Z,9.60
2023-04-20T18:45:44.652Z,9.70
2023-04-20T18:55:49.449Z,9.60
2023-04-20T19:05:52.876Z,9.30
2023-04-20T19:15:59.169Z,9.00
2023-04-20T19:26:02.810Z,8.50
2023-04-20T19:36:08.374Z,8.00
2023-04-20T19:46:11.970Z,7.40
2023-04-20T19:56:16.937Z,7.10
2023-04-20T20:06:21.673Z,6.70
2023-04-20T20:16:28.206Z,6.50
2023-04-20T20:26:31.815Z,6.30
2023-04-20T20:36:36.543Z,6.10
2023-04-20T20:46:40.155Z,6.00
2023-04-20T20:56:45.123Z,5.70
2023-04-20T21:06:48.473Z,5.30
2023-04-20T21:16:53.279Z,5.00
2023-04-20T21:26:56.760Z,4.80
2023-04-20T21:37:04.270Z,5.40
2023-04-20T21:47:07.609Z,4.20
2023-04-20T21:57:12.373Z,3.90
2023-04-20T22:07:18.120Z,3.80
2023-04-20T22:17:23.749Z,3.80
2023-04-20T22:27:27.444Z,3.60
2023-04-20T22:37:32.244Z,3.30
2023-04-20T22:47:35.755Z,3.10
2023-04-20T22:57:40.614Z,3.00
2023-04-20T23:07:45.333Z,2.90
2023-04-20T23:17:50.841Z,2.80
2023-04-20T23:27:54.304Z,2.80
2023-04-20T23:37:59.032Z,2.80
2023-04-20T23:48:02.439Z,3.00
2023-04-20T23:58:07.290Z,3.20
